Time;durP1;ratioP1;P1;durP2;ratioP2;P2;SDS_P1;SDS_P2;PMS_P1;PMS_P2;Temp;Humidity;BMP_temperature;BMP_pressure;BME280_temperature;BME280_humidity;BME280_pressure;Samples;Min_cycle;Max_cycle;Signal;HPM_P1;HPM_P2
2021/05/08 00:01:48;;;;;;;13.63;8.83;;;6.70;79.90;;;;;;4995134;28;20406;-85
2021/05/08 00:04:14;;;;;;;13.23;9.03;;;6.60;80.10;;;;;;4995674;28;20334;-85
2021/05/08 00:06:40;;;;;;;16.33;9.60;;;6.60;80.40;;;;;;4979300;28;20028;-85
2021/05/08 00:09:07;;;;;;;15.83;9.57;;;6.60;80.50;;;;;;5011786;28;20463;-85
2021/05/08 00:11:34;;;;;;;13.47;9.00;;;6.50;80.70;;;;;;5011862;28;20050;-86
2021/05/08 00:14:00;;;;;;;13.13;8.83;;;6.50;80.70;;;;;;5015052;28;20028;-85
2021/05/08 00:16:26;;;;;;;13.50;8.90;;;6.50;80.70;;;;;;4999351;28;20025;-85
2021/05/08 00:18:52;;;;;;;12.83;8.83;;;6.40;80.80;;;;;;4999551;28;20373;-86
2021/05/08 00:21:18;;;;;;;13.40;9.00;;;6.40;80.80;;;;;;5017223;28;20026;-87
2021/05/08 00:23:43;;;;;;;14.33;9.20;;;6.40;80.80;;;;;;5018208;28;20485;-88
2021/05/08 00:26:09;;;;;;;12.90;8.47;;;6.40;80.80;;;;;;5017774;28;20352;-88
2021/05/08 00:28:34;;;;;;;15.23;9.00;;;6.40;80.90;;;;;;4999763;28;20033;-88
2021/05/08 00:31:00;;;;;;;13.33;8.40;;;6.40;81.00;;;;;;4984164;28;20025;-88
2021/05/08 00:33:26;;;;;;;15.70;8.33;;;6.30;81.10;;;;;;5015721;28;20037;-82
2021/05/08 00:35:51;;;;;;;13.47;8.17;;;6.50;81.40;;;;;;5015393;28;20018;-85
2021/05/08 00:38:17;;;;;;;13.73;8.03;;;6.20;81.30;;;;;;5015206;28;20030;-85
2021/05/08 00:40:42;;;;;;;12.93;8.27;;;6.30;81.50;;;;;;5015156;28;20021;-85
2021/05/08 00:43:08;;;;;;;14.70;9.17;;;6.20;81.40;;;;;;4998666;28;20033;-85
2021/05/08 00:45:34;;;;;;;15.10;8.93;;;6.20;81.40;;;;;;5014947;28;20022;-86
2021/05/08 00:48:06;;;;;;;18.93;8.83;;;6.20;81.40;;;;;;4998627;28;20040;-85
2021/05/08 00:50:33;;;;;;;12.10;7.87;;;6.10;81.50;;;;;;4998759;28;20431;-84
2021/05/08 00:53:00;;;;;;;11.73;7.47;;;6.10;81.60;;;;;;5015000;28;20114;-84
2021/05/08 00:55:26;;;;;;;12.87;8.70;;;6.00;81.80;;;;;;4998830;28;20062;-86
2021/05/08 00:57:52;;;;;;;16.73;8.87;;;5.90;81.80;;;;;;5014839;28;20034;-86
2021/05/08 01:00:18;;;;;;;16.20;9.70;;;6.00;82.30;;;;;;4982380;28;20022;-86
2021/05/08 01:02:44;;;;;;;13.77;9.80;;;6.00;82.60;;;;;;5014528;28;20041;-86
2021/05/08 01:05:10;;;;;;;16.77;10.73;;;6.10;82.80;;;;;;4998121;28;20030;-86
2021/05/08 01:07:40;;;;;;;15.70;10.37;;;6.00;82.80;;;;;;5014897;28;20022;-87
2021/05/08 01:10:10;;;;;;;15.60;10.77;;;6.10;83.00;;;;;;5015962;28;20021;-87
2021/05/08 01:12:37;;;;;;;16.37;10.40;;;5.90;83.00;;;;;;5013841;28;20125;-86
2021/05/08 01:15:09;;;;;;;15.93;9.93;;;5.90;83.30;;;;;;5015405;28;20084;-86
2021/05/08 01:17:36;;;;;;;15.80;9.87;;;5.90;83.20;;;;;;5014477;28;20037;-85
2021/05/08 01:20:04;;;;;;;15.47;10.97;;;5.90;83.30;;;;;;5015680;28;20026;-85
2021/05/08 01:22:30;;;;;;;17.50;11.40;;;5.90;83.20;;;;;;5014460;28;20026;-85
2021/05/08 01:24:56;;;;;;;17.07;10.17;;;6.00;83.30;;;;;;5012911;28;20042;-84
2021/05/08 01:27:21;;;;;;;16.77;10.13;;;5.80;83.10;;;;;;5013862;28;20033;-83
2021/05/08 01:29:47;;;;;;;17.10;10.20;;;5.90;83.30;;;;;;4997743;28;20467;-88
2021/05/08 01:32:12;;;;;;;15.67;9.37;;;5.80;83.30;;;;;;4998410;28;20103;-88
2021/05/08 01:34:38;;;;;;;15.30;9.67;;;5.80;83.30;;;;;;5014156;28;20030;-87
2021/05/08 01:37:03;;;;;;;17.10;10.17;;;5.80;83.40;;;;;;5014278;28;20026;-87
2021/05/08 01:39:30;;;;;;;17.17;10.27;;;5.80;83.60;;;;;;4997712;28;20022;-85
2021/05/08 01:41:56;;;;;;;15.00;9.50;;;5.70;83.60;;;;;;5015086;28;20036;-86
2021/05/08 01:44:22;;;;;;;14.73;9.50;;;5.70;83.70;;;;;;4997496;28;20124;-86
2021/05/08 01:46:48;;;;;;;16.37;9.97;;;5.70;83.80;;;;;;5013789;28;20022;-86
2021/05/08 01:49:13;;;;;;;14.53;9.47;;;5.70;83.90;;;;;;5015438;28;20419;-86
2021/05/08 01:51:39;;;;;;;16.10;10.47;;;5.70;84.00;;;;;;4981526;28;20018;-86
2021/05/08 01:54:05;;;;;;;14.47;10.40;;;5.70;84.40;;;;;;4997678;28;20018;-85
2021/05/08 01:56:31;;;;;;;15.13;9.83;;;5.70;84.40;;;;;;4980645;28;20359;-85
2021/05/08 01:58:56;;;;;;;16.30;10.17;;;5.70;84.50;;;;;;4997538;28;20026;-87
2021/05/08 02:01:22;;;;;;;16.23;9.70;;;5.70;84.60;;;;;;5014199;28;20038;-87
2021/05/08 02:03:48;;;;;;;16.03;10.37;;;5.70;84.70;;;;;;4980692;28;20441;-88
2021/05/08 02:06:15;;;;;;;14.90;10.30;;;5.70;84.80;;;;;;4997353;28;20022;-85
2021/05/08 02:08:40;;;;;;;13.97;10.60;;;5.70;84.90;;;;;;4996856;28;20128;-86
2021/05/08 02:11:06;;;;;;;19.10;11.53;;;5.70;85.00;;;;;;4997183;28;20060;-86
2021/05/08 02:13:31;;;;;;;14.93;10.00;;;5.70;85.00;;;;;;5013543;28;20036;-86
2021/05/08 02:15:57;;;;;;;18.13;10.87;;;5.80;85.20;;;;;;5013541;28;20447;-84
2021/05/08 02:18:23;;;;;;;17.87;10.60;;;5.80;85.20;;;;;;4996665;28;20025;-84
2021/05/08 02:20:48;;;;;;;17.70;12.10;;;5.90;85.20;;;;;;4997386;28;20018;-86
2021/05/08 02:23:16;;;;;;;20.23;11.20;;;5.80;85.20;;;;;;5013192;28;20061;-84
2021/05/08 02:25:42;;;;;;;19.20;12.33;;;5.80;85.30;;;;;;5014217;28;20026;-83
2021/05/08 02:28:08;;;;;;;19.13;11.33;;;5.90;85.30;;;;;;4996959;28;20025;-84
2021/05/08 02:30:38;;;;;;;17.63;11.47;;;5.90;85.30;;;;;;5013255;28;20030;-84
2021/05/08 02:33:04;;;;;;;17.23;11.40;;;5.90;85.30;;;;;;5014896;28;20028;-86
2021/05/08 02:35:30;;;;;;;18.07;12.47;;;6.00;85.30;;;;;;5012918;28;20030;-84
2021/05/08 02:37:57;;;;;;;15.17;11.27;;;6.10;85.40;;;;;;4996348;28;20186;-82
2021/05/08 02:40:34;;;;;;;20.37;10.77;;;6.10;85.30;;;;;;4996349;28;20033;-84
2021/05/08 02:43:01;;;;;;;17.37;11.70;;;6.30;85.10;;;;;;5012803;28;20052;-85
2021/05/08 02:45:27;;;;;;;16.67;11.07;;;6.20;84.90;;;;;;5013949;28;20026;-84
2021/05/08 02:47:52;;;;;;;19.33;12.00;;;6.20;84.80;;;;;;4996246;28;20018;-85
2021/05/08 02:50:19;;;;;;;21.47;11.00;;;6.30;84.70;;;;;;5012750;28;20447;-84
2021/05/08 02:52:46;;;;;;;15.57;10.77;;;6.30;84.60;;;;;;5012648;28;20026;-85
2021/05/08 02:55:13;;;;;;;15.93;11.27;;;6.30;84.60;;;;;;4996659;28;20030;-85
2021/05/08 02:57:39;;;;;;;19.33;10.20;;;6.30;84.30;;;;;;5013969;28;20029;-85
2021/05/08 03:00:07;;;;;;;16.20;11.03;;;6.40;84.30;;;;;;5012782;28;20022;-86
2021/05/08 03:02:33;;;;;;;18.40;10.60;;;6.40;84.30;;;;;;5012066;28;20026;-85
2021/05/08 03:04:58;;;;;;;17.47;9.97;;;6.40;84.30;;;;;;4995704;28;20026;-85
2021/05/08 03:07:24;;;;;;;17.73;10.53;;;6.40;84.20;;;;;;5012524;28;20030;-85
2021/05/08 03:09:50;;;;;;;14.80;9.57;;;6.60;84.30;;;;;;4995991;28;20505;-86
2021/05/08 03:12:15;;;;;;;15.90;11.00;;;6.50;84.10;;;;;;4995607;28;20061;-86
2021/05/08 03:14:41;;;;;;;17.67;10.23;;;6.50;84.10;;;;;;5012786;28;20061;-86
2021/05/08 03:17:07;;;;;;;15.50;9.80;;;6.50;84.00;;;;;;4996200;28;20456;-86
2021/05/08 03:19:32;;;;;;;16.33;10.10;;;6.50;83.90;;;;;;5012438;28;20116;-85
2021/05/08 03:21:58;;;;;;;15.87;10.03;;;6.50;83.90;;;;;;5013687;28;20034;-87
2021/05/08 03:24:23;;;;;;;13.83;9.13;;;6.50;83.80;;;;;;5012873;28;20052;-87
2021/05/08 03:26:49;;;;;;;15.13;10.13;;;6.60;83.70;;;;;;4980312;28;20370;-87
2021/05/08 03:29:15;;;;;;;15.43;10.33;;;6.60;83.50;;;;;;5012774;28;20022;-85
2021/05/08 03:31:41;;;;;;;16.43;10.73;;;6.60;83.30;;;;;;5013455;28;20021;-85
2021/05/08 03:34:06;;;;;;;14.70;9.87;;;6.60;83.30;;;;;;4995395;28;20525;-83
2021/05/08 03:36:32;;;;;;;15.23;9.50;;;6.50;83.20;;;;;;5013051;28;20030;-85
2021/05/08 03:38:58;;;;;;;16.73;10.20;;;6.40;83.10;;;;;;5012617;28;20411;-85
2021/05/08 03:41:23;;;;;;;19.37;11.07;;;6.50;83.10;;;;;;5012192;28;20431;-84
2021/05/08 03:43:49;;;;;;;16.10;10.20;;;6.50;83.00;;;;;;4995974;28;20033;-85
2021/05/08 03:46:15;;;;;;;16.13;10.43;;;6.50;82.90;;;;;;4996323;28;20387;-85
2021/05/08 03:48:41;;;;;;;16.53;10.20;;;6.50;82.90;;;;;;4981394;28;20118;-85
2021/05/08 03:51:06;;;;;;;14.43;10.23;;;6.40;82.80;;;;;;5015968;28;20030;-84
2021/05/08 03:53:32;;;;;;;16.37;10.73;;;6.50;82.80;;;;;;5015862;28;20018;-85
2021/05/08 03:55:58;;;;;;;14.27;10.07;;;6.40;82.70;;;;;;5016439;28;20109;-85
2021/05/08 03:58:28;;;;;;;17.57;10.47;;;6.40;82.60;;;;;;4983430;28;20038;-84
2021/05/08 04:00:54;;;;;;;15.70;10.17;;;6.40;82.60;;;;;;4998724;28;20486;-83
2021/05/08 04:03:20;;;;;;;15.80;9.60;;;6.40;82.50;;;;;;5015716;28;20080;-85
2021/05/08 04:05:46;;;;;;;14.73;10.70;;;6.30;82.50;;;;;;5015574;28;20029;-85
2021/05/08 04:08:13;;;;;;;14.60;9.97;;;6.30;82.50;;;;;;5014314;28;20477;-84
2021/05/08 04:10:38;;;;;;;17.20;11.17;;;6.30;82.50;;;;;;4999295;28;20471;-84
2021/05/08 04:13:04;;;;;;;17.70;10.20;;;6.30;82.40;;;;;;5016604;28;20054;-85
2021/05/08 04:15:30;;;;;;;16.10;10.77;;;6.30;82.40;;;;;;5014900;28;20018;-85
2021/05/08 04:17:55;;;;;;;20.60;10.90;;;6.20;82.50;;;;;;4998975;28;20032;-84
2021/05/08 04:20:21;;;;;;;17.47;10.97;;;6.20;82.50;;;;;;5015410;28;20022;-85
2021/05/08 04:22:47;;;;;;;17.00;11.13;;;6.20;82.60;;;;;;5015813;28;20209;-85
2021/05/08 04:25:12;;;;;;;18.10;11.03;;;6.20;82.70;;;;;;4998910;28;20459;-85
2021/05/08 04:27:38;;;;;;;16.53;11.47;;;6.20;82.70;;;;;;5015366;28;20041;-85
2021/05/08 04:30:05;;;;;;;16.97;11.17;;;6.20;82.70;;;;;;4982934;28;20026;-83
2021/05/08 04:32:31;;;;;;;17.80;11.10;;;6.30;82.70;;;;;;5016317;28;20034;-85
2021/05/08 04:34:56;;;;;;;14.70;10.27;;;6.30;82.70;;;;;;4998827;28;20129;-85
2021/05/08 04:37:22;;;;;;;15.70;10.97;;;6.30;82.70;;;;;;5015043;28;20459;-85
2021/05/08 04:39:48;;;;;;;16.07;11.03;;;6.40;82.80;;;;;;5015499;28;20030;-85
2021/05/08 04:42:13;;;;;;;19.70;11.60;;;6.40;82.90;;;;;;5015269;28;20022;-86
2021/05/08 04:44:39;;;;;;;15.83;10.77;;;6.40;82.90;;;;;;5017164;28;20037;-88
2021/05/08 04:47:05;;;;;;;17.60;10.67;;;6.50;82.90;;;;;;5019003;28;20567;-83
2021/05/08 04:49:31;;;;;;;16.07;10.93;;;6.60;82.90;;;;;;5016063;28;20033;-86
2021/05/08 04:51:57;;;;;;;15.93;9.93;;;6.60;82.80;;;;;;5015712;28;20470;-87
2021/05/08 04:54:23;;;;;;;16.43;11.27;;;6.70;82.80;;;;;;5005846;28;20034;-83
2021/05/08 04:56:48;;;;;;;17.93;10.23;;;6.80;82.70;;;;;;5011253;28;20081;-86
2021/05/08 04:59:14;;;;;;;15.40;10.47;;;6.90;82.80;;;;;;5013842;28;20073;-86
2021/05/08 05:01:40;;;;;;;15.80;10.23;;;6.90;82.70;;;;;;4997226;28;20076;-83
2021/05/08 05:04:05;;;;;;;15.40;9.33;;;6.90;82.60;;;;;;4994184;28;20061;-87
2021/05/08 05:06:31;;;;;;;14.17;9.50;;;7.20;82.70;;;;;;5013277;28;20021;-85
2021/05/08 05:08:57;;;;;;;15.07;9.47;;;7.20;82.50;;;;;;4977963;28;20018;-85
2021/05/08 05:11:23;;;;;;;15.40;9.80;;;7.20;82.30;;;;;;4994000;28;20141;-83
2021/05/08 05:13:49;;;;;;;15.70;9.17;;;7.30;82.10;;;;;;4995132;28;20096;-82
2021/05/08 05:16:15;;;;;;;16.13;10.33;;;7.30;82.00;;;;;;5011011;28;20022;-81
2021/05/08 05:18:40;;;;;;;14.57;9.83;;;7.40;81.70;;;;;;5015965;28;20088;-81
2021/05/08 05:21:06;;;;;;;16.07;10.37;;;7.40;81.40;;;;;;5012659;28;20018;-82
2021/05/08 05:23:32;;;;;;;15.43;9.90;;;7.40;81.20;;;;;;5014940;28;20394;-82
2021/05/08 05:25:57;;;;;;;14.77;9.60;;;7.50;81.20;;;;;;5014026;28;20081;-82
2021/05/08 05:28:26;;;;;;;12.80;9.30;;;7.50;81.00;;;;;;4997729;28;20025;-82
2021/05/08 05:30:51;;;;;;;13.70;9.17;;;7.60;81.00;;;;;;5016817;28;20021;-82
2021/05/08 05:33:18;;;;;;;13.80;8.57;;;7.70;80.80;;;;;;5014547;28;20083;-82
2021/05/08 05:35:46;;;;;;;12.40;9.17;;;7.70;80.70;;;;;;5012742;28;20017;-83
2021/05/08 05:38:11;;;;;;;15.20;9.13;;;7.80;80.50;;;;;;5014658;28;20108;-82
2021/05/08 05:40:37;;;;;;;14.00;9.17;;;7.90;80.60;;;;;;4980989;28;20611;-82
2021/05/08 05:43:03;;;;;;;14.07;9.37;;;7.70;80.10;;;;;;5013165;28;20037;-82
2021/05/08 05:45:28;;;;;;;13.87;9.67;;;7.90;80.10;;;;;;5013014;28;20076;-82
2021/05/08 05:47:55;;;;;;;14.93;9.40;;;8.00;80.00;;;;;;5013133;28;20366;-82
2021/05/08 05:50:21;;;;;;;14.03;9.17;;;8.10;79.90;;;;;;5013518;28;20076;-82
2021/05/08 05:52:47;;;;;;;13.47;9.47;;;8.10;79.60;;;;;;4978691;28;20546;-82
2021/05/08 05:55:13;;;;;;;12.63;8.47;;;8.20;79.50;;;;;;4992112;28;20023;-82
2021/05/08 05:57:39;;;;;;;11.80;8.50;;;8.30;79.30;;;;;;4961353;28;20019;-83
2021/05/08 06:00:05;;;;;;;13.73;8.50;;;8.40;79.10;;;;;;4994451;28;20022;-83
2021/05/08 06:02:33;;;;;;;13.87;9.80;;;8.40;78.90;;;;;;4977600;28;20534;-83
2021/05/08 06:04:59;;;;;;;15.73;9.13;;;8.50;78.60;;;;;;4962447;28;20057;-83
2021/05/08 06:07:25;;;;;;;15.70;8.60;;;8.60;78.50;;;;;;5010040;28;20030;-83
2021/05/08 06:09:53;;;;;;;13.33;8.80;;;8.60;78.30;;;;;;4993414;28;20030;-83
2021/05/08 06:12:19;;;;;;;17.97;9.80;;;8.70;78.10;;;;;;4992771;28;20046;-82
2021/05/08 06:14:44;;;;;;;13.90;8.00;;;8.80;77.80;;;;;;4993474;28;20081;-82
2021/05/08 06:17:10;;;;;;;13.70;8.77;;;8.80;77.60;;;;;;4993795;28;20468;-83
2021/05/08 06:19:35;;;;;;;13.47;8.00;;;8.90;77.50;;;;;;5009802;28;20113;-83
2021/05/08 06:22:01;;;;;;;13.80;7.37;;;9.00;77.10;;;;;;4994757;28;20117;-83
2021/05/08 06:24:26;;;;;;;10.20;7.30;;;9.20;77.00;;;;;;4993496;28;20045;-82
2021/05/08 06:26:52;;;;;;;12.97;7.13;;;9.20;76.50;;;;;;4994851;28;20539;-82
2021/05/08 06:29:17;;;;;;;10.13;6.60;;;9.20;76.00;;;;;;4976880;28;20030;-83
2021/05/08 06:31:43;;;;;;;12.33;7.13;;;9.20;75.40;;;;;;4977009;28;20061;-83
2021/05/08 06:34:09;;;;;;;13.57;7.20;;;9.30;75.00;;;;;;4961055;28;20054;-83
2021/05/08 06:36:34;;;;;;;13.37;7.47;;;9.30;75.00;;;;;;4992914;28;20019;-82
2021/05/08 06:39:00;;;;;;;9.83;6.30;;;9.40;74.70;;;;;;5003824;28;20553;-83
2021/05/08 06:41:25;;;;;;;11.60;7.17;;;9.60;74.80;;;;;;4996142;28;20033;-83
2021/05/08 06:43:51;;;;;;;12.17;7.43;;;9.60;74.40;;;;;;5014005;28;20041;-82
2021/05/08 06:46:17;;;;;;;13.23;7.53;;;9.80;73.90;;;;;;5013617;28;20463;-82
2021/05/08 06:48:42;;;;;;;11.30;7.30;;;9.70;73.20;;;;;;5012718;28;20113;-83
2021/05/08 06:51:08;;;;;;;12.83;7.57;;;9.80;72.80;;;;;;5012817;28;20360;-83
2021/05/08 06:53:35;;;;;;;11.37;6.67;;;9.90;72.20;;;;;;5012762;28;20509;-82
2021/05/08 06:56:01;;;;;;;12.57;7.33;;;9.80;71.90;;;;;;5013636;28;20379;-83
2021/05/08 06:58:27;;;;;;;9.13;5.67;;;9.90;71.60;;;;;;5013322;28;20037;-83
2021/05/08 07:00:53;;;;;;;9.87;5.87;;;9.90;71.40;;;;;;5012865;28;20473;-83
2021/05/08 07:03:19;;;;;;;10.70;6.73;;;10.10;71.10;;;;;;5012222;28;20116;-84
2021/05/08 07:05:44;;;;;;;13.30;6.97;;;10.10;70.60;;;;;;5011831;28;20467;-83
2021/05/08 07:08:11;;;;;;;10.33;6.40;;;10.20;70.40;;;;;;4996198;28;20371;-84
2021/05/08 07:10:51;;;;;;;12.17;6.70;;;10.20;70.20;;;;;;5012274;28;20064;-83
2021/05/08 07:13:17;;;;;;;10.17;6.47;;;10.30;70.20;;;;;;5013270;28;20127;-85
2021/05/08 07:15:43;;;;;;;10.40;6.30;;;10.30;70.00;;;;;;5012395;28;20033;-84
2021/05/08 07:18:09;;;;;;;11.07;6.73;;;10.40;70.00;;;;;;4996494;28;20382;-85
2021/05/08 07:20:36;;;;;;;9.60;5.77;;;10.50;69.70;;;;;;5012001;28;20018;-84
2021/05/08 07:23:04;;;;;;;10.53;6.53;;;10.50;69.60;;;;;;5012853;28;20029;-84
2021/05/08 07:25:30;;;;;;;11.77;6.40;;;10.60;69.60;;;;;;5012129;28;20041;-85
2021/05/08 07:28:20;;;;;;;13.80;6.00;;;10.70;69.60;;;;;;4996351;28;20048;-84
2021/05/08 07:30:48;;;;;;;12.13;6.30;;;10.80;69.10;;;;;;4996272;28;20026;-86
2021/05/08 07:33:15;;;;;;;11.47;6.77;;;10.90;68.70;;;;;;5011972;28;20014;-85
2021/05/08 07:35:42;;;;;;;12.90;7.83;;;11.00;68.20;;;;;;5012999;28;20466;-85
2021/05/08 07:38:08;;;;;;;13.50;6.63;;;11.10;67.50;;;;;;4979663;28;20028;-83
2021/05/08 07:40:38;;;;;;;9.40;6.20;;;11.10;67.50;;;;;;5013968;28;20021;-88
2021/05/08 07:43:04;;;;;;;8.00;5.43;;;11.20;66.90;;;;;;5013691;28;20057;-85
2021/05/08 07:45:31;;;;;;;8.97;5.03;;;11.40;66.90;;;;;;5012697;28;20018;-85
2021/05/08 07:47:57;;;;;;;9.23;5.10;;;11.60;66.20;;;;;;5011550;28;20021;-85
2021/05/08 07:50:24;;;;;;;11.77;5.03;;;11.60;65.30;;;;;;5012677;28;20108;-85
2021/05/08 07:52:50;;;;;;;10.13;4.60;;;11.60;64.70;;;;;;4994552;28;20125;-85
2021/05/08 07:55:16;;;;;;;12.75;5.60;;;11.70;64.20;;;;;;5011842;28;20057;-85
2021/05/08 07:57:41;;;;;;;9.57;5.37;;;11.70;63.70;;;;;;5011856;28;20022;-85
2021/05/08 08:00:09;;;;;;;11.00;5.72;;;11.90;63.60;;;;;;5013141;28;20057;-84
2021/05/08 08:02:35;;;;;;;9.10;5.13;;;11.80;63.40;;;;;;5012064;28;20038;-84
2021/05/08 08:05:02;;;;;;;11.02;6.30;;;11.90;63.10;;;;;;5011466;28;20113;-83
2021/05/08 08:07:28;;;;;;;9.20;5.28;;;12.00;63.10;;;;;;4995802;28;20141;-84
2021/05/08 08:09:54;;;;;;;10.23;5.13;;;12.00;63.00;;;;;;5012856;28;20441;-83
2021/05/08 08:12:20;;;;;;;9.27;5.22;;;12.10;62.90;;;;;;5012995;28;20050;-84
2021/05/08 08:14:46;;;;;;;11.90;5.68;;;12.10;62.90;;;;;;5013019;28;20033;-84
2021/05/08 08:17:12;;;;;;;8.77;5.35;;;12.20;63.00;;;;;;5007431;28;20467;-84
2021/05/08 08:19:37;;;;;;;9.95;5.63;;;12.30;63.10;;;;;;4998107;28;20379;-84
2021/05/08 08:22:03;;;;;;;6.97;4.25;;;12.40;62.30;;;;;;5015721;28;20045;-85
2021/05/08 08:24:29;;;;;;;10.30;4.22;;;12.40;61.10;;;;;;4995435;28;20030;-84
2021/05/08 08:26:54;;;;;;;9.57;4.97;;;12.40;61.40;;;;;;5011816;28;20414;-84
2021/05/08 08:29:20;;;;;;;11.77;5.38;;;12.50;60.00;;;;;;5012592;28;20032;-84
2021/05/08 08:31:46;;;;;;;9.10;4.75;;;12.50;60.00;;;;;;4979244;28;20089;-85
2021/05/08 08:34:12;;;;;;;9.43;4.22;;;12.50;59.70;;;;;;5012256;28;20028;-84
2021/05/08 08:36:38;;;;;;;10.30;4.53;;;12.60;59.60;;;;;;5016158;28;20025;-81
2021/05/08 08:39:05;;;;;;;8.40;4.32;;;12.60;59.70;;;;;;5015433;28;20352;-83
2021/05/08 08:41:31;;;;;;;8.25;4.07;;;12.70;59.70;;;;;;5016003;28;20029;-84
2021/05/08 08:43:57;;;;;;;8.55;4.25;;;12.80;59.30;;;;;;5014773;28;20022;-83
2021/05/08 08:46:23;;;;;;;9.48;4.40;;;12.80;59.20;;;;;;5014893;28;20048;-85
2021/05/08 08:48:50;;;;;;;9.65;4.60;;;12.90;59.00;;;;;;4998581;28;20360;-83
2021/05/08 08:51:16;;;;;;;11.32;5.00;;;13.00;58.50;;;;;;5016405;28;20451;-84
2021/05/08 08:53:42;;;;;;;9.35;4.57;;;13.00;58.00;;;;;;5015541;28;20025;-84
2021/05/08 08:56:08;;;;;;;8.80;4.45;;;13.10;57.60;;;;;;5016274;28;20029;-83
2021/05/08 08:58:37;;;;;;;8.07;4.28;;;13.10;57.50;;;;;;4999428;28;20033;-85
2021/05/08 09:01:05;;;;;;;12.75;4.30;;;13.30;57.80;;;;;;4983896;28;20030;-87
2021/05/08 09:03:32;;;;;;;7.70;4.45;;;13.30;57.80;;;;;;5014550;28;20061;-83
2021/05/08 09:06:01;;;;;;;9.20;4.40;;;13.50;56.40;;;;;;5017127;28;20030;-85
2021/05/08 09:08:29;;;;;;;8.43;4.30;;;13.50;56.00;;;;;;5017596;28;20026;-82
2021/05/08 09:11:18;;;;;;;15.85;4.50;;;13.60;56.30;;;;;;5004362;28;20052;-85
2021/05/08 09:13:44;;;;;;;7.55;4.28;;;13.60;56.30;;;;;;4994490;28;20125;-85
2021/05/08 09:16:10;;;;;;;8.77;3.72;;;13.80;56.20;;;;;;5003357;28;20410;-85
2021/05/08 09:18:38;;;;;;;9.13;3.45;;;13.90;56.20;;;;;;5014345;28;20050;-86
2021/05/08 09:21:08;;;;;;;10.90;4.68;;;14.00;56.20;;;;;;4998671;28;20022;-86
2021/05/08 09:23:34;;;;;;;14.95;4.68;;;14.00;55.30;;;;;;5015268;28;20113;-86
2021/05/08 09:26:10;;;;;;;8.07;4.15;;;14.20;54.70;;;;;;5015961;28;20026;-86
2021/05/08 09:28:38;;;;;;;8.27;4.43;;;14.20;54.60;;;;;;5015186;28;20025;-85
2021/05/08 09:31:06;;;;;;;8.50;4.20;;;14.30;54.40;;;;;;5014198;28;20121;-86
2021/05/08 09:33:32;;;;;;;12.30;4.95;;;14.30;53.50;;;;;;5015340;28;20088;-85
2021/05/08 09:36:04;;;;;;;10.50;4.10;;;14.30;53.00;;;;;;5014179;28;20026;-85
2021/05/08 09:38:33;;;;;;;8.95;4.28;;;14.30;53.30;;;;;;5015236;28;20105;-85
2021/05/08 09:40:59;;;;;;;9.38;3.65;;;14.40;53.70;;;;;;5014737;28;20079;-84
2021/05/08 09:43:26;;;;;;;7.30;3.88;;;14.40;53.90;;;;;;5013927;28;20045;-85
2021/05/08 09:45:52;;;;;;;9.55;4.07;;;14.50;53.50;;;;;;5013104;28;20545;-84
2021/05/08 09:48:23;;;;;;;8.25;4.18;;;14.50;53.10;;;;;;4997612;28;20025;-85
2021/05/08 09:50:49;;;;;;;7.63;3.63;;;14.50;52.50;;;;;;5013761;28;20378;-86
2021/05/08 09:53:29;;;;;;;8.80;4.00;;;14.60;52.30;;;;;;5015108;28;20026;-85
2021/05/08 09:55:55;;;;;;;7.05;2.85;;;14.70;52.90;;;;;;5015722;28;20466;-84
2021/05/08 09:58:23;;;;;;;7.97;3.25;;;14.80;52.20;;;;;;4997660;28;20156;-85
2021/05/08 10:00:50;;;;;;;9.23;3.40;;;14.90;51.80;;;;;;4981950;28;20108;-84
2021/05/08 10:03:16;;;;;;;7.25;2.70;;;14.90;51.40;;;;;;4981787;28;20385;-84
2021/05/08 10:05:47;;;;;;;7.60;3.33;;;15.00;51.30;;;;;;5014430;28;20433;-86
2021/05/08 10:08:12;;;;;;;8.95;4.35;;;15.00;50.80;;;;;;5015330;28;20041;-86
2021/05/08 10:10:38;;;;;;;9.02;3.53;;;15.00;50.90;;;;;;5015933;28;20041;-84
2021/05/08 10:13:09;;;;;;;7.82;2.97;;;15.00;51.30;;;;;;5017802;28;20045;-84
2021/05/08 10:15:36;;;;;;;8.15;3.00;;;15.00;50.70;;;;;;5015641;28;20063;-85
2021/05/08 10:18:04;;;;;;;7.22;3.17;;;15.00;50.90;;;;;;5013545;28;20017;-85
2021/05/08 10:20:31;;;;;;;7.35;3.17;;;15.10;51.00;;;;;;5013386;28;20037;-86
2021/05/08 10:23:08;;;;;;;7.32;2.35;;;15.10;51.00;;;;;;5013057;28;20025;-85
2021/05/08 10:25:36;;;;;;;7.22;2.22;;;15.10;50.80;;;;;;5014822;28;20033;-83
2021/05/08 10:28:02;;;;;;;3.42;1.58;;;15.20;51.70;;;;;;4996588;28;20054;-84
2021/05/08 10:30:34;;;;;;;3.58;1.25;;;15.20;51.10;;;;;;4996729;28;20030;-84
2021/05/08 10:33:05;;;;;;;5.00;1.50;;;15.20;51.30;;;;;;5013765;28;20041;-88
2021/05/08 10:35:45;;;;;;;3.83;1.30;;;15.20;51.40;;;;;;5015291;28;20479;-87
2021/05/08 10:38:19;;;;;;;3.55;1.67;;;15.30;51.70;;;;;;5013266;28;20033;-84
2021/05/08 10:40:51;;;;;;;;;;;15.30;50.70;;;;;;5014696;28;20451;-89
2021/05/08 10:43:44;;;;;;;3.92;1.42;;;15.30;51.10;;;;;;5013304;28;19910;-86
2021/05/08 10:46:12;;;;;;;4.40;1.52;;;15.30;51.30;;;;;;5008798;28;20528;-88
2021/05/08 10:48:37;;;;;;;4.57;1.58;;;15.40;51.90;;;;;;5014716;28;20053;-87
2021/05/08 10:51:04;;;;;;;5.15;1.80;;;15.40;51.80;;;;;;4996701;28;20029;-83
2021/05/08 10:53:42;;;;;;;4.53;1.45;;;15.40;52.00;;;;;;5014015;28;20022;-84
2021/05/08 10:56:33;;;;;;;4.45;1.63;;;15.40;52.40;;;;;;5013957;28;20018;-83
2021/05/08 10:59:07;;;;;;;6.18;1.77;;;15.40;52.60;;;;;;5013516;28;20014;-86
2021/05/08 11:01:41;;;;;;;6.50;2.45;;;15.40;52.60;;;;;;5014077;28;20049;-87
2021/05/08 11:04:07;;;;;;;5.88;2.33;;;15.30;52.30;;;;;;5012872;28;20037;-87
2021/05/08 11:06:33;;;;;;;6.18;2.47;;;15.20;51.80;;;;;;5013251;28;20026;-87
2021/05/08 11:08:59;;;;;;;6.20;2.63;;;15.10;52.50;;;;;;5016933;28;20029;-85
2021/05/08 11:11:44;;;;;;;8.27;2.67;;;15.00;53.70;;;;;;5014827;28;20116;-87
2021/05/08 11:14:10;;;;;;;5.32;2.45;;;14.90;54.50;;;;;;5013894;28;20053;-86
2021/05/08 11:16:52;;;;;;;6.18;2.33;;;14.80;55.00;;;;;;5013439;28;20065;-86
2021/05/08 11:19:23;;;;;;;5.78;2.55;;;14.80;55.50;;;;;;5014900;28;20037;-87
2021/05/08 11:21:49;;;;;;;6.65;2.75;;;14.70;56.00;;;;;;5016902;28;20018;-81
2021/05/08 11:24:41;;;;;;;5.50;2.28;;;14.60;55.70;;;;;;5014030;28;20034;-87
2021/05/08 11:27:39;;;;;;;7.85;2.58;;;14.50;56.20;;;;;;5013711;28;20026;-87
2021/05/08 11:30:07;;;;;;;5.45;1.98;;;14.50;57.00;;;;;;4959782;28;20033;-86
2021/05/08 11:32:44;;;;;;;4.65;2.00;;;14.40;57.20;;;;;;4992383;28;20058;-87
2021/05/08 11:35:10;;;;;;;5.47;2.15;;;14.40;57.50;;;;;;5010585;28;20057;-87
2021/05/08 11:37:35;;;;;;;5.80;1.95;;;14.30;57.80;;;;;;5011564;28;20529;-85
2021/05/08 11:40:01;;;;;;;3.97;2.08;;;14.30;58.50;;;;;;5012324;28;20422;-86
2021/05/08 11:42:26;;;;;;;4.20;2.20;;;14.20;59.40;;;;;;5012679;28;20026;-87
2021/05/08 11:44:54;;;;;;;5.50;1.85;;;14.20;59.80;;;;;;5012270;28;20482;-88
2021/05/08 11:47:30;;;;;;;8.23;2.28;;;14.10;60.90;;;;;;5013757;28;20026;-86
2021/05/08 11:50:08;;;;;;;4.63;1.77;;;14.00;61.90;;;;;;5012336;28;20052;-85
2021/05/08 11:52:40;;;;;;;7.15;2.10;;;13.90;63.00;;;;;;5010571;28;20132;-83
2021/05/08 11:55:17;;;;;;;4.22;2.03;;;13.80;63.70;;;;;;5011981;28;20462;-87
2021/05/08 11:57:58;;;;;;;4.78;1.77;;;13.80;64.90;;;;;;4993441;28;20430;-85
2021/05/08 12:00:28;;;;;;;3.63;1.80;;;13.70;65.90;;;;;;5010557;28;20097;-87
2021/05/08 12:03:14;;;;;;;8.15;2.88;;;13.70;67.40;;;;;;5012099;28;20045;-86
2021/05/08 12:05:48;;;;;;;6.57;2.55;;;13.60;67.90;;;;;;5011259;28;20052;-85
2021/05/08 12:08:16;;;;;;;5.25;2.05;;;13.50;68.10;;;;;;5011130;28;20371;-84
2021/05/08 12:10:43;;;;;;;5.95;2.15;;;13.40;69.40;;;;;;4998130;28;20116;-85
2021/05/08 12:13:09;;;;;;;7.28;3.00;;;13.30;71.60;;;;;;5014859;28;20046;-85
2021/05/08 12:15:41;;;;;;;7.03;2.97;;;13.20;71.40;;;;;;4997747;28;20042;-86
2021/05/08 12:18:12;;;;;;;7.75;3.10;;;13.10;72.00;;;;;;5016952;28;20029;-85
2021/05/08 12:20:43;;;;;;;4.75;2.85;;;13.00;72.70;;;;;;5014782;28;20467;-84
2021/05/08 12:23:13;;;;;;;7.40;3.50;;;12.90;73.40;;;;;;5014807;28;20092;-86
2021/05/08 12:25:39;;;;;;;6.28;2.90;;;12.90;73.70;;;;;;5013815;28;20535;-86
2021/05/08 12:28:18;;;;;;;7.70;3.15;;;12.80;73.90;;;;;;5015184;28;20049;-87
2021/05/08 12:30:45;;;;;;;7.65;3.13;;;12.80;74.20;;;;;;5014197;28;20013;-86
2021/05/08 12:33:19;;;;;;;7.53;2.53;;;12.80;75.90;;;;;;5015326;28;20087;-86
2021/05/08 12:35:45;;;;;;;6.38;2.97;;;12.80;75.60;;;;;;4998004;28;20021;-84
2021/05/08 12:38:17;;;;;;;7.30;3.53;;;12.80;76.00;;;;;;5015043;28;20426;-86
2021/05/08 12:40:47;;;;;;;5.22;2.85;;;12.90;76.40;;;;;;5015441;28;20022;-87
2021/05/08 12:43:27;;;;;;;6.35;2.83;;;12.90;76.60;;;;;;5013870;28;20041;-84
2021/05/08 12:46:12;;;;;;;5.15;2.78;;;12.90;77.00;;;;;;5014275;28;20045;-86